Time;durP1;ratioP1;P1;durP2;ratioP2;P2;SDS_P1;SDS_P2;PMS_P1;PMS_P2;Temp;Humidity;BMP_temperature;BMP_pressure;BME280_temperature;BME280_humidity;BME280_pressure;Samples;Min_cycle;Max_cycle;Signal;HPM_P1;HPM_P2
2023/10/29 00:02:24;;;;;;;4.60;1.80;;;16.50;1.00;;;;;;5055556;28;20137;-28
2023/10/29 00:04:50;;;;;;;4.32;1.52;;;;;;;;;;5052075;28;20048;-28
2023/10/29 00:07:16;;;;;;;4.70;1.50;;;16.60;1.00;;;;;;5048072;28;20102;-32
2023/10/29 00:09:41;;;;;;;4.25;1.60;;;15.90;1.00;;;;;;5055985;28;20042;-28
2023/10/29 00:12:07;;;;;;;4.40;1.75;;;;;;;;;;5046962;28;20037;-30
2023/10/29 00:14:33;;;;;;;5.57;1.70;;;16.40;1.00;;;;;;5049341;28;20063;-28
2023/10/29 00:16:59;;;;;;;3.90;1.50;;;16.90;1.00;;;;;;5054194;28;20036;-28
2023/10/29 00:19:24;;;;;;;3.92;1.58;;;16.50;1.00;;;;;;5052826;28;20361;-30
2023/10/29 00:21:50;;;;;;;4.25;1.75;;;16.50;1.00;;;;;;5045560;28;20036;-30
2023/10/29 00:24:15;;;;;;;4.57;1.90;;;16.50;1.00;;;;;;5044192;28;20116;-30
2023/10/29 00:26:41;;;;;;;4.20;1.40;;;16.30;1.00;;;;;;5050567;28;20401;-28
2023/10/29 00:29:07;;;;;;;5.65;1.63;;;16.70;1.00;;;;;;5057154;28;20068;-28
2023/10/29 00:31:33;;;;;;;4.53;1.60;;;15.90;1.00;;;;;;5051373;28;20056;-29
2023/10/29 00:33:59;;;;;;;4.13;1.50;;;16.70;1.00;;;;;;5050451;28;20025;-29
2023/10/29 00:36:25;;;;;;;4.68;1.58;;;;;;;;;;5049207;28;20156;-28
2023/10/29 00:38:51;;;;;;;3.95;1.42;;;15.90;1.00;;;;;;5057992;28;20048;-28
2023/10/29 00:41:16;;;;;;;4.00;1.38;;;15.70;1.00;;;;;;5048176;28;20052;-31
2023/10/29 00:43:45;;;;;;;4.30;1.50;;;16.50;1.00;;;;;;5045479;28;20037;-28
2023/10/29 00:46:13;;;;;;;4.97;1.40;;;15.90;1.00;;;;;;5049058;28;20609;-28
2023/10/29 00:48:39;;;;;;;3.05;1.15;;;16.40;1.00;;;;;;5052267;28;20067;-30
2023/10/29 00:51:05;;;;;;;4.10;1.20;;;16.40;1.00;;;;;;5052429;28;20475;-30
2023/10/29 00:53:31;;;;;;;3.53;1.52;;;16.30;1.00;;;;;;5051113;28;20104;-28
2023/10/29 00:55:58;;;;;;;4.07;1.30;;;16.70;1.00;;;;;;5049034;28;20052;-29
2023/10/29 00:58:24;;;;;;;4.95;1.20;;;16.50;1.00;;;;;;5047735;28;20073;-29
2023/10/29 01:00:50;;;;;;;2.67;0.98;;;16.30;1.00;;;;;;5046934;28;20045;-28
2023/10/29 01:03:18;;;;;;;4.13;1.08;;;16.00;1.00;;;;;;5047739;28;20112;-30
2023/10/29 01:05:44;;;;;;;3.17;1.00;;;;;;;;;;5047297;28;20044;-30
2023/10/29 01:08:10;;;;;;;3.72;1.05;;;;;;;;;;5051095;28;20404;-31
2023/10/29 01:10:36;;;;;;;4.10;1.30;;;16.40;1.00;;;;;;5049511;28;20095;-32
2023/10/29 01:13:02;;;;;;;4.22;1.30;;;16.30;1.00;;;;;;5050597;28;20029;-28
2023/10/29 01:15:27;;;;;;;2.70;0.93;;;17.10;1.00;;;;;;5048659;28;20045;-28
2023/10/29 01:17:53;;;;;;;3.75;1.27;;;16.30;1.00;;;;;;5052468;28;20040;-29
2023/10/29 01:20:18;;;;;;;3.80;1.30;;;16.60;1.00;;;;;;5046753;28;20624;-29
2023/10/29 01:22:44;;;;;;;2.97;1.00;;;16.30;1.00;;;;;;5050964;28;20041;-28
2023/10/29 01:25:11;;;;;;;3.50;0.90;;;;;;;;;;5052213;28;20032;-32
2023/10/29 01:27:37;;;;;;;3.08;1.00;;;16.30;1.00;;;;;;5043619;28;20052;-30
2023/10/29 01:30:05;;;;;;;3.40;0.90;;;16.40;1.00;;;;;;5043290;28;20033;-28
2023/10/29 01:32:31;;;;;;;3.20;1.10;;;16.60;1.00;;;;;;5047691;28;20508;-29
2023/10/29 01:34:56;;;;;;;3.75;1.20;;;16.80;1.00;;;;;;5042940;28;20034;-28
2023/10/29 01:37:22;;;;;;;2.85;1.30;;;16.30;1.00;;;;;;5046449;28;20124;-30
2023/10/29 01:39:47;;;;;;;2.75;1.00;;;16.70;1.00;;;;;;5049367;28;20037;-28
2023/10/29 01:42:13;;;;;;;3.60;1.15;;;16.50;1.00;;;;;;5040981;28;20029;-31
2023/10/29 01:44:41;;;;;;;2.67;0.90;;;16.50;1.00;;;;;;5044692;28;20043;-30
2023/10/29 01:47:06;;;;;;;3.58;1.10;;;16.50;1.00;;;;;;5045212;28;20040;-30
2023/10/29 01:49:33;;;;;;;2.70;0.90;;;;;;;;;;5042437;28;20032;-32
2023/10/29 01:51:59;;;;;;;2.65;1.00;;;16.30;1.00;;;;;;5039318;28;20068;-28
2023/10/29 01:54:25;;;;;;;2.53;0.82;;;16.70;1.00;;;;;;5043260;28;20037;-29
2023/10/29 01:56:50;;;;;;;2.22;0.90;;;16.40;1.00;;;;;;5048172;28;20544;-29
2023/10/29 01:59:16;;;;;;;3.15;0.90;;;16.40;1.00;;;;;;5047625;28;20044;-32
2023/10/29 02:01:42;;;;;;;4.55;1.10;;;16.70;1.00;;;;;;5043782;28;20029;-31
2023/10/29 02:04:14;;;;;;;3.25;1.15;;;;;;;;;;5044714;28;20028;-30
2023/10/29 02:06:40;;;;;;;2.97;1.08;;;;;;;;;;5041022;28;20052;-37
2023/10/29 02:09:08;;;;;;;3.15;1.00;;;16.70;1.00;;;;;;5043965;28;20029;-30
2023/10/29 02:11:35;;;;;;;2.75;0.93;;;;;;;;;;5047049;28;20041;-28
2023/10/29 02:14:01;;;;;;;3.00;1.00;;;16.50;1.00;;;;;;5045970;28;20044;-28
2023/10/29 02:16:27;;;;;;;2.60;1.00;;;16.60;1.00;;;;;;5043946;28;20052;-28
2023/10/29 02:18:52;;;;;;;2.95;1.10;;;16.90;1.00;;;;;;5047994;28;20036;-28
2023/10/29 02:21:20;;;;;;;3.00;1.00;;;16.80;1.00;;;;;;5042641;28;20033;-32
2023/10/29 02:23:46;;;;;;;4.45;1.17;;;16.90;1.00;;;;;;5075199;28;20048;-29
2023/10/29 02:26:12;;;;;;;3.25;1.08;;;16.50;1.00;;;;;;5051736;28;20045;-28
2023/10/29 02:28:37;;;;;;;2.85;1.05;;;16.80;1.00;;;;;;5047483;28;20127;-28
2023/10/29 02:31:03;;;;;;;2.50;0.90;;;16.50;1.00;;;;;;5048133;28;20610;-31
2023/10/29 02:33:30;;;;;;;2.92;0.90;;;16.60;1.00;;;;;;5048121;28;20033;-31
2023/10/29 02:35:56;;;;;;;3.13;0.98;;;16.60;1.00;;;;;;5055565;28;20116;-31
2023/10/29 02:38:23;;;;;;;2.45;0.90;;;16.70;1.00;;;;;;5044033;28;20518;-28
2023/10/29 02:40:49;;;;;;;3.03;1.33;;;16.50;1.00;;;;;;5046007;28;20052;-29
2023/10/29 02:43:16;;;;;;;3.03;0.95;;;16.50;1.00;;;;;;5041991;28;20053;-28
2023/10/29 02:45:41;;;;;;;3.88;0.88;;;16.50;1.00;;;;;;5042636;28;20032;-31
2023/10/29 02:48:07;;;;;;;3.38;0.98;;;;;;;;;;5043255;28;20508;-28
2023/10/29 02:50:35;;;;;;;3.30;1.10;;;16.50;1.00;;;;;;5052058;28;20090;-30
2023/10/29 02:53:01;;;;;;;2.40;0.85;;;16.40;1.00;;;;;;5042226;28;20041;-30
2023/10/29 02:55:30;;;;;;;4.25;1.13;;;16.30;1.00;;;;;;5079068;28;20162;-28
2023/10/29 02:57:55;;;;;;;3.22;0.90;;;16.50;1.00;;;;;;5041825;28;20099;-28
2023/10/29 03:00:21;;;;;;;3.13;0.90;;;16.30;1.00;;;;;;5045843;28;20069;-28
2023/10/29 03:02:46;;;;;;;4.38;1.00;;;16.90;1.00;;;;;;5046031;28;20045;-29
2023/10/29 03:05:12;;;;;;;3.08;0.95;;;17.10;1.00;;;;;;5045870;28;20045;-28
2023/10/29 03:07:38;;;;;;;3.33;1.00;;;16.60;1.00;;;;;;5042831;28;20078;-29
2023/10/29 03:10:07;;;;;;;3.00;1.20;;;16.60;1.00;;;;;;5045011;28;20040;-28
2023/10/29 03:12:35;;;;;;;3.40;0.90;;;16.10;1.00;;;;;;5051664;28;20033;-29
2023/10/29 03:15:01;;;;;;;3.95;0.93;;;15.90;1.00;;;;;;5044268;28;20037;-31
2023/10/29 03:17:26;;;;;;;2.28;0.90;;;16.70;1.00;;;;;;5047349;28;20034;-31
2023/10/29 03:19:52;;;;;;;5.43;1.15;;;16.40;1.00;;;;;;5050772;28;20049;-27
2023/10/29 03:22:18;;;;;;;2.28;0.90;;;;;;;;;;5052033;28;20094;-28
2023/10/29 03:24:44;;;;;;;3.00;1.00;;;16.30;1.00;;;;;;5050208;28;20483;-31
2023/10/29 03:27:10;;;;;;;2.72;1.00;;;;;;;;;;5048103;28;20032;-28
2023/10/29 03:29:36;;;;;;;2.60;0.90;;;16.40;1.00;;;;;;5042318;28;20386;-30
2023/10/29 03:32:03;;;;;;;3.35;0.90;;;;;;;;;;5050081;28;20037;-28
2023/10/29 03:34:31;;;;;;;2.85;0.98;;;;;;;;;;5046788;28;20068;-28
2023/10/29 03:36:56;;;;;;;2.60;0.90;;;15.80;1.00;;;;;;5072634;28;20467;-31
2023/10/29 03:39:23;;;;;;;3.95;1.00;;;;;;;;;;5071675;28;20069;-32
2023/10/29 03:41:49;;;;;;;2.30;1.00;;;;;;;;;;5048829;28;20088;-30
2023/10/29 03:44:14;;;;;;;3.08;1.65;;;16.40;1.00;;;;;;5043949;28;20068;-29
2023/10/29 03:46:41;;;;;;;1.50;0.70;;;;;;;;;;5049582;28;20071;-28
2023/10/29 03:49:06;;;;;;;3.30;0.85;;;16.80;1.00;;;;;;5050932;28;20519;-28
2023/10/29 03:51:32;;;;;;;4.35;1.02;;;16.50;1.00;;;;;;5045674;28;20036;-28
2023/10/29 03:53:58;;;;;;;3.30;1.00;;;16.70;1.00;;;;;;5045186;28;20032;-29
2023/10/29 03:56:23;;;;;;;2.00;0.80;;;15.90;1.00;;;;;;5048455;28;20033;-28
2023/10/29 03:58:49;;;;;;;2.95;0.90;;;16.70;1.00;;;;;;5048145;28;20068;-32
2023/10/29 04:01:16;;;;;;;4.95;1.52;;;;;;;;;;5048962;28;20112;-28
2023/10/29 04:03:43;;;;;;;3.05;1.00;;;17.00;1.00;;;;;;5025476;28;20063;-30
2023/10/29 04:06:12;;;;;;;3.92;1.10;;;16.50;1.00;;;;;;5049156;28;20047;-28
2023/10/29 04:08:39;;;;;;;2.70;0.90;;;;;;;;;;5047634;28;20051;-31
2023/10/29 04:11:05;;;;;;;3.45;0.90;;;16.80;1.00;;;;;;5051643;28;20128;-28
2023/10/29 04:13:31;;;;;;;3.13;0.90;;;16.40;1.00;;;;;;5043828;28;20112;-29
2023/10/29 04:15:57;;;;;;;4.30;0.93;;;16.00;1.00;;;;;;5049329;28;20041;-29
2023/10/29 04:18:24;;;;;;;3.60;1.10;;;16.70;1.00;;;;;;5042900;28;20044;-32
2023/10/29 04:20:50;;;;;;;4.10;1.00;;;16.50;1.00;;;;;;5009844;28;1189373;-29
2023/10/29 04:23:19;;;;;;;2.80;1.00;;;16.10;1.00;;;;;;5046707;28;20385;-29
2023/10/29 04:25:45;;;;;;;3.05;0.90;;;16.70;1.00;;;;;;5047048;28;20082;-31
2023/10/29 04:28:10;;;;;;;2.17;0.77;;;16.40;1.00;;;;;;5051092;28;20460;-28
2023/10/29 04:30:36;;;;;;;2.50;0.90;;;16.40;1.00;;;;;;5050968;28;20033;-27
2023/10/29 04:33:02;;;;;;;1.67;0.70;;;16.70;1.00;;;;;;5043558;28;20489;-28
2023/10/29 04:35:29;;;;;;;1.98;0.88;;;17.10;1.00;;;;;;5045021;28;20095;-28
2023/10/29 04:37:55;;;;;;;3.30;1.02;;;15.80;1.00;;;;;;5043483;28;20040;-32
2023/10/29 04:40:21;;;;;;;3.20;1.05;;;;;;;;;;5044911;28;20557;-28
2023/10/29 04:42:47;;;;;;;2.90;0.95;;;16.60;1.00;;;;;;5047414;28;20404;-29
2023/10/29 04:45:12;;;;;;;2.92;0.90;;;17.00;1.00;;;;;;5045524;28;20043;-28
2023/10/29 04:47:38;;;;;;;2.00;0.77;;;16.40;1.00;;;;;;5077019;28;20045;-30
2023/10/29 04:50:08;;;;;;;4.40;1.27;;;16.50;1.00;;;;;;5046036;28;20424;-30
2023/10/29 04:52:33;;;;;;;2.03;0.70;;;16.70;1.00;;;;;;5047583;28;20500;-28
2023/10/29 04:55:04;;;;;;;2.35;0.70;;;16.00;1.00;;;;;;5044449;28;20045;-28
2023/10/29 04:57:30;;;;;;;2.88;0.70;;;16.00;1.00;;;;;;5043316;28;20042;-34
2023/10/29 04:59:56;;;;;;;1.75;0.70;;;;;;;;;;5069780;28;20107;-28
2023/10/29 05:02:22;;;;;;;3.03;0.70;;;15.80;1.00;;;;;;5044450;28;20452;-30
2023/10/29 05:04:51;;;;;;;2.45;0.82;;;16.80;1.00;;;;;;5040790;28;20041;-31
2023/10/29 05:07:17;;;;;;;3.03;0.80;;;16.30;1.00;;;;;;5038152;28;20045;-30
2023/10/29 05:09:43;;;;;;;2.55;0.90;;;16.20;1.00;;;;;;5044212;28;20423;-30
2023/10/29 05:12:09;;;;;;;2.88;0.80;;;16.30;1.00;;;;;;5046084;28;20467;-29
2023/10/29 05:14:35;;;;;;;3.80;1.05;;;;;;;;;;5041535;28;20047;-28
2023/10/29 05:17:02;;;;;;;3.13;1.05;;;;;;;;;;5042657;28;20580;-28
2023/10/29 05:19:28;;;;;;;3.55;0.80;;;16.30;1.00;;;;;;5044210;28;20045;-28
2023/10/29 05:21:53;;;;;;;1.85;0.60;;;16.80;1.00;;;;;;5045540;28;20044;-28
2023/10/29 05:24:20;;;;;;;2.00;0.80;;;16.40;1.00;;;;;;5036544;28;20623;-31
2023/10/29 05:26:46;;;;;;;4.03;0.75;;;15.60;1.00;;;;;;5043887;28;20041;-32
2023/10/29 05:29:12;;;;;;;3.67;0.80;;;;;;;;;;5041768;28;20045;-28
2023/10/29 05:31:38;;;;;;;3.17;1.15;;;;;;;;;;5046458;28;20539;-28
2023/10/29 05:34:04;;;;;;;3.67;0.82;;;16.40;1.00;;;;;;5044901;28;20043;-28
2023/10/29 05:36:30;;;;;;;2.75;0.80;;;15.90;1.00;;;;;;5040305;28;20038;-30
2023/10/29 05:38:57;;;;;;;2.13;0.73;;;16.50;1.00;;;;;;5045352;28;20033;-32
2023/10/29 05:41:23;;;;;;;1.98;0.70;;;16.20;1.00;;;;;;5044967;28;20048;-31
2023/10/29 05:43:49;;;;;;;3.13;0.93;;;16.20;1.00;;;;;;5046785;28;20041;-32
2023/10/29 05:46:15;;;;;;;2.60;0.80;;;;;;;;;;5041102;28;20064;-28
2023/10/29 05:48:41;;;;;;;2.95;0.90;;;15.90;1.00;;;;;;5047481;28;20040;-31
2023/10/29 05:51:12;;;;;;;3.97;1.35;;;;;;;;;;5039750;28;20185;-28
2023/10/29 05:53:39;;;;;;;3.33;0.95;;;16.30;1.00;;;;;;5042957;28;20033;-28
2023/10/29 05:56:05;;;;;;;2.75;0.80;;;16.70;1.00;;;;;;5041527;28;20026;-31
2023/10/29 05:58:31;;;;;;;3.75;1.00;;;16.40;1.00;;;;;;5046638;28;20543;-28
2023/10/29 06:00:57;;;;;;;3.45;1.27;;;16.40;1.00;;;;;;5046213;28;20128;-29
2023/10/29 06:03:23;;;;;;;2.30;0.90;;;;;;;;;;5042149;28;20115;-36
2023/10/29 06:05:52;;;;;;;3.53;0.90;;;16.10;1.00;;;;;;5044752;28;20056;-31
2023/10/29 06:08:18;;;;;;;3.75;1.10;;;16.20;1.00;;;;;;5049396;28;20045;-28
2023/10/29 06:10:43;;;;;;;3.95;1.00;;;16.40;1.00;;;;;;5026789;28;20040;-29
2023/10/29 06:13:09;;;;;;;3.85;1.13;;;15.60;1.00;;;;;;5041569;28;20057;-34
2023/10/29 06:15:36;;;;;;;1.75;0.80;;;16.30;1.00;;;;;;5046420;28;20033;-29
2023/10/29 06:18:04;;;;;;;2.20;0.80;;;16.30;1.00;;;;;;5043659;28;20033;-28
2023/10/29 06:20:29;;;;;;;1.98;0.70;;;16.20;1.00;;;;;;5042666;28;20484;-30
2023/10/29 06:22:55;;;;;;;2.75;0.88;;;16.20;1.00;;;;;;5040454;28;20037;-30
2023/10/29 06:25:24;;;;;;;3.58;0.75;;;16.80;1.00;;;;;;5069419;28;20060;-30
2023/10/29 06:27:50;;;;;;;2.28;0.75;;;;;;;;;;5042357;28;20051;-33
2023/10/29 06:30:16;;;;;;;6.25;0.88;;;16.20;1.00;;;;;;5041061;28;20114;-29
2023/10/29 06:32:42;;;;;;;3.28;0.90;;;16.70;1.00;;;;;;5040445;28;20488;-28
2023/10/29 06:35:08;;;;;;;4.35;0.90;;;16.70;1.00;;;;;;5040573;28;20159;-30
2023/10/29 06:37:35;;;;;;;1.88;0.70;;;15.60;1.00;;;;;;5046098;28;20029;-28
2023/10/29 06:40:01;;;;;;;3.10;0.80;;;;;;;;;;5046706;28;20037;-28
2023/10/29 06:42:26;;;;;;;3.50;0.88;;;15.90;1.00;;;;;;5044845;28;20072;-28
2023/10/29 06:44:52;;;;;;;3.50;0.90;;;15.90;1.00;;;;;;5036886;28;20517;-30
2023/10/29 06:47:18;;;;;;;2.97;1.05;;;15.90;1.00;;;;;;5038733;28;20069;-28
2023/10/29 06:49:43;;;;;;;3.50;0.90;;;15.40;1.00;;;;;;5046280;28;20068;-29
2023/10/29 06:52:10;;;;;;;3.40;0.80;;;;;;;;;;5041618;28;20423;-30
2023/10/29 06:54:36;;;;;;;5.35;0.90;;;15.70;1.00;;;;;;5045435;28;20035;-27
2023/10/29 06:57:02;;;;;;;3.35;0.95;;;16.30;1.00;;;;;;5047108;28;20029;-27
2023/10/29 06:59:28;;;;;;;2.25;0.80;;;16.00;1.00;;;;;;5046010;28;20045;-28
2023/10/29 07:01:57;;;;;;;5.95;1.08;;;15.60;1.00;;;;;;5049631;28;20037;-30
2023/10/29 07:04:22;;;;;;;3.40;0.85;;;15.40;1.00;;;;;;5030494;28;20099;-27
2023/10/29 07:06:49;;;;;;;3.95;1.05;;;16.10;1.00;;;;;;5048169;28;20041;-31
2023/10/29 07:09:15;;;;;;;4.43;0.98;;;15.70;1.00;;;;;;5046078;28;20063;-34
2023/10/29 07:11:42;;;;;;;3.28;1.25;;;;;;;;;;5046155;28;20541;-28
2023/10/29 07:14:08;;;;;;;4.53;1.00;;;;;;;;;;5046000;28;20041;-29
2023/10/29 07:16:34;;;;;;;3.15;1.05;;;15.80;1.00;;;;;;5056149;28;20496;-28
2023/10/29 07:18:59;;;;;;;4.45;1.27;;;15.90;1.00;;;;;;5049364;28;20105;-28
2023/10/29 07:21:25;;;;;;;3.63;1.00;;;15.30;1.00;;;;;;5050865;28;20087;-27
2023/10/29 07:23:50;;;;;;;5.13;0.98;;;15.70;1.00;;;;;;5050131;28;20037;-30
2023/10/29 07:26:16;;;;;;;4.03;1.10;;;16.30;1.00;;;;;;5047865;28;20029;-27
2023/10/29 07:28:42;;;;;;;3.85;0.93;;;15.80;1.00;;;;;;5051124;28;20045;-28
2023/10/29 07:31:08;;;;;;;4.93;0.93;;;;;;;;;;5049002;28;20033;-30
2023/10/29 07:33:34;;;;;;;3.70;1.00;;;;;;;;;;5034397;28;20504;-29
2023/10/29 07:36:02;;;;;;;4.22;1.00;;;15.40;1.00;;;;;;5035069;28;20047;-31
2023/10/29 07:38:28;;;;;;;4.80;1.17;;;15.50;1.00;;;;;;5048858;28;20044;-27
2023/10/29 07:40:54;;;;;;;4.80;1.15;;;15.90;1.00;;;;;;5044466;28;20056;-28
2023/10/29 07:43:19;;;;;;;10.55;2.45;;;15.90;1.00;;;;;;5042927;28;20145;-30
2023/10/29 07:45:47;;;;;;;8.38;2.20;;;15.50;99.90;;;;;;5046080;28;20036;-27
2023/10/29 07:48:17;;;;;;;9.57;2.55;;;;;;;;;;5039850;28;20076;-28
2023/10/29 07:50:49;;;;;;;8.68;2.33;;;15.40;1.00;;;;;;5044579;28;20080;-27
2023/10/29 07:53:14;;;;;;;11.48;2.88;;;15.80;1.00;;;;;;5042946;28;20033;-30
2023/10/29 07:55:40;;;;;;;16.13;2.97;;;15.60;1.00;;;;;;5044585;28;20405;-30
2023/10/29 07:58:06;;;;;;;13.13;2.65;;;15.40;1.00;;;;;;5048557;28;20036;-28
2023/10/29 08:00:32;;;;;;;12.18;3.10;;;;;;;;;;5040827;28;20045;-32
2023/10/29 08:02:57;;;;;;;15.95;4.25;;;16.40;1.00;;;;;;5044159;28;20155;-27
2023/10/29 08:05:23;;;;;;;11.43;2.10;;;15.90;1.00;;;;;;5041016;28;20060;-27
2023/10/29 08:07:49;;;;;;;8.02;2.63;;;15.80;1.00;;;;;;5046459;28;20533;-31
2023/10/29 08:10:14;;;;;;;8.90;1.80;;;15.70;1.00;;;;;;5043624;28;20084;-28
2023/10/29 08:12:40;;;;;;;6.35;1.83;;;16.60;1.00;;;;;;5035316;28;20555;-27
2023/10/29 08:15:12;;;;;;;7.18;2.35;;;;;;;;;;5041332;28;20036;-28
2023/10/29 08:17:39;;;;;;;7.60;1.83;;;16.40;1.00;;;;;;5048511;28;20033;-28
2023/10/29 08:20:24;;;;;;;8.10;1.80;;;15.40;99.90;;;;;;5047380;28;20044;-30
2023/10/29 08:22:50;;;;;;;7.00;1.67;;;16.30;1.00;;;;;;5042210;28;20044;-29
2023/10/29 08:25:24;;;;;;;6.75;1.95;;;15.80;1.00;;;;;;5044022;28;20043;-29
2023/10/29 08:27:50;;;;;;;7.18;2.08;;;16.40;1.00;;;;;;5042919;28;20408;-30
2023/10/29 08:30:16;;;;;;;10.25;1.80;;;15.90;1.00;;;;;;5048813;28;20037;-30
2023/10/29 08:32:45;;;;;;;6.10;1.50;;;15.80;99.90;;;;;;5042718;28;20036;-27
2023/10/29 08:35:10;;;;;;;9.18;1.92;;;15.40;1.00;;;;;;5042081;28;20029;-27
2023/10/29 08:37:37;;;;;;;6.07;1.35;;;;;;;;;;5041881;28;20033;-27
2023/10/29 08:40:03;;;;;;;7.82;1.80;;;15.30;1.00;;;;;;5040932;28;20045;-28
2023/10/29 08:42:30;;;;;;;11.50;2.15;;;;;;;;;;5037505;28;20523;-29
2023/10/29 08:44:56;;;;;;;6.07;1.60;;;16.20;1.00;;;;;;5065919;28;20084;-27
2023/10/29 08:47:23;;;;;;;7.40;1.52;;;15.70;1.00;;;;;;5039262;28;20049;-27
2023/10/29 08:49:48;;;;;;;6.53;1.30;;;16.30;1.00;;;;;;5044353;28;20033;-28
2023/10/29 08:52:14;;;;;;;5.47;1.63;;;15.30;1.00;;;;;;5043482;28;20048;-28
2023/10/29 08:54:40;;;;;;;4.75;1.30;;;15.70;1.00;;;;;;5055461;28;21304;-29
2023/10/29 08:57:06;;;;;;;6.25;1.35;;;15.60;1.00;;;;;;5063789;28;20108;-27
2023/10/29 08:59:32;;;;;;;6.43;1.40;;;16.30;1.00;;;;;;5058731;28;20041;-29
2023/10/29 09:01:57;;;;;;;8.10;1.70;;;15.70;1.00;;;;;;5034118;28;20047;-27
2023/10/29 09:04:23;;;;;;;5.18;1.20;;;15.40;1.00;;;;;;5054309;28;20065;-30
2023/10/29 09:06:49;;;;;;;6.10;1.30;;;;;;;;;;5050063;28;20045;-29
2023/10/29 09:09:15;;;;;;;5.53;1.48;;;16.20;1.00;;;;;;5031787;28;20045;-29
2023/10/29 09:11:46;;;;;;;6.03;1.38;;;;;;;;;;5049300;28;20382;-27
2023/10/29 09:14:13;;;;;;;5.05;1.20;;;15.70;1.00;;;;;;5059054;28;20048;-29
2023/10/29 09:16:44;;;;;;;5.57;1.17;;;15.20;1.00;;;;;;5045780;28;20048;-27
2023/10/29 09:19:09;;;;;;;6.35;1.35;;;16.30;1.00;;;;;;5078949;28;20091;-27
2023/10/29 09:21:36;;;;;;;6.03;1.50;;;15.80;99.90;;;;;;5050568;28;20452;-27
2023/10/29 09:24:02;;;;;;;4.82;1.40;;;15.20;1.00;;;;;;5057128;28;20045;-27
2023/10/29 09:26:27;;;;;;;7.55;1.60;;;16.20;1.00;;;;;;5052874;28;20077;-27
2023/10/29 09:28:53;;;;;;;6.82;1.20;;;15.70;1.00;;;;;;5048388;28;20045;-29
2023/10/29 09:31:22;;;;;;;5.57;1.40;;;;;;;;;;5045377;28;20121;-27
2023/10/29 09:33:47;;;;;;;7.18;1.60;;;15.30;1.00;;;;;;5050381;28;20084;-29
2023/10/29 09:36:14;;;;;;;6.78;1.48;;;;;;;;;;5037983;28;20072;-28
2023/10/29 09:38:40;;;;;;;4.95;1.20;;;15.70;1.00;;;;;;5047764;28;20623;-30
2023/10/29 09:41:07;;;;;;;6.93;1.73;;;15.70;1.00;;;;;;5048518;28;20051;-28
2023/10/29 09:43:41;;;;;;;5.38;1.48;;;15.60;1.00;;;;;;5052771;28;20036;-28
2023/10/29 09:46:07;;;;;;;5.90;1.38;;;15.80;1.00;;;;;;5046671;28;20037;-28
2023/10/29 09:48:36;;;;;;;4.90;1.20;;;;;;;;;;5042230;28;20041;-30
2023/10/29 09:51:04;;;;;;;6.18;1.40;;;15.80;1.00;;;;;;5023807;28;20037;-29
2023/10/29 09:53:35;;;;;;;6.43;1.35;;;15.40;1.00;;;;;;5044021;28;20033;-27
2023/10/29 09:56:07;;;;;;;5.80;1.38;;;15.60;1.00;;;;;;5050992;28;20413;-29
2023/10/29 09:58:34;;;;;;;4.95;1.30;;;16.30;1.00;;;;;;5051087;28;20044;-31
2023/10/29 10:01:04;;;;;;;3.75;1.02;;;16.10;1.00;;;;;;5036847;28;20068;-28
2023/10/29 10:03:32;;;;;;;6.15;1.20;;;15.50;1.00;;;;;;5053702;28;20112;-29
2023/10/29 10:06:01;;;;;;;7.75;1.40;;;;;;;;;;5043856;28;20457;-27
2023/10/29 10:08:28;;;;;;;6.57;1.48;;;;;;;;;;5056308;28;20040;-31
2023/10/29 10:10:54;;;;;;;4.20;1.10;;;;;;;;;;5051997;28;20085;-29
2023/10/29 10:13:41;;;;;;;5.47;1.48;;;15.80;99.90;;;;;;5036256;28;20044;-28
2023/10/29 10:16:11;;;;;;;4.07;1.10;;;15.80;1.00;;;;;;5046960;28;20043;-28
2023/10/29 10:18:54;;;;;;;5.90;1.75;;;15.30;1.00;;;;;;5044838;28;20063;-28
2023/10/29 10:21:23;;;;;;;5.63;1.33;;;15.70;1.00;;;;;;5040981;28;20041;-28
2023/10/29 10:23:55;;;;;;;5.45;1.23;;;;;;;;;;5046615;28;20148;-28
2023/10/29 10:26:34;;;;;;;3.72;1.08;;;;;;;;;;5043829;28;20704;-27
2023/10/29 10:29:01;;;;;;;5.35;1.30;;;;;;;;;;5041739;28;20036;-28
2023/10/29 10:31:27;;;;;;;4.88;1.30;;;16.20;1.00;;;;;;5045591;28;20036;-28
2023/10/29 10:34:14;;;;;;;3.78;1.48;;;;;;;;;;5049679;28;20456;-28
2023/10/29 10:36:43;;;;;;;4.55;1.30;;;;;;;;;;5043174;28;20041;-28
2023/10/29 10:39:11;;;;;;;6.72;1.45;;;16.30;1.00;;;;;;5047451;28;20495;-28
2023/10/29 10:41:42;;;;;;;5.30;1.40;;;15.90;99.90;;;;;;5045112;28;20048;-29
2023/10/29 10:44:12;;;;;;;5.60;1.63;;;;;;;;;;5046919;28;20041;-28
2023/10/29 10:46:40;;;;;;;8.10;1.40;;;;;;;;;;5056133;28;20412;-28
2023/10/29 10:49:09;;;;;;;5.57;1.58;;;15.30;1.00;;;;;;5050392;28;20033;-28
2023/10/29 10:51:38;;;;;;;6.13;1.42;;;15.40;1.00;;;;;;5038523;28;20564;-30
2023/10/29 10:54:05;;;;;;;5.22;1.58;;;15.10;1.00;;;;;;5041898;28;20128;-28
2023/10/29 10:56:36;;;;;;;7.68;1.70;;;;;;;;;;5051581;28;20056;-30
2023/10/29 10:59:05;;;;;;;4.32;1.20;;;15.80;99.90;;;;;;5053102;28;20045;-27
2023/10/29 11:01:35;;;;;;;4.82;1.38;;;;;;;;;;5050699;28;20053;-29
2023/10/29 11:04:03;;;;;;;7.10;1.83;;;15.70;1.00;;;;;;5046516;28;20045;-31
2023/10/29 11:06:29;;;;;;;5.15;1.33;;;;;;;;;;5050969;28;20547;-28
2023/10/29 11:08:59;;;;;;;5.85;1.48;;;15.90;99.90;;;;;;5049827;28;20088;-28
2023/10/29 11:11:37;;;;;;;7.28;1.60;;;;;;;;;;5046711;28;20045;-30
2023/10/29 11:14:13;;;;;;;4.75;1.40;;;;;;;;;;5069938;28;20033;-31
2023/10/29 11:16:53;;;;;;;4.40;1.35;;;15.80;1.00;;;;;;5050961;28;20056;-27
2023/10/29 11:19:47;;;;;;;6.05;1.42;;;15.60;99.90;;;;;;5049570;28;20050;-27
2023/10/29 11:22:22;;;;;;;5.95;1.50;;;;;;;;;;5047684;28;20047;-27
2023/10/29 11:25:14;;;;;;;8.13;1.50;;;;;;;;;;5054760;28;20040;-28
2023/10/29 11:27:49;;;;;;;6.93;1.67;;;15.80;1.00;;;;;;5048567;28;20544;-27
2023/10/29 11:30:21;;;;;;;5.43;1.40;;;15.30;99.90;;;;;;5051160;28;20127;-28
2023/10/29 11:33:09;;;;;;;7.00;1.35;;;;;;;;;;5055247;28;20041;-27
2023/10/29 11:35:36;;;;;;;7.93;2.17;;;;;;;;;;5073680;28;20370;-27
2023/10/29 11:38:22;;;;;;;8.77;1.50;;;;;;;;;;5051409;28;20563;-27
2023/10/29 11:40:49;;;;;;;7.80;1.80;;;15.70;1.00;;;;;;5047073;28;20044;-27
2023/10/29 11:43:21;;;;;;;5.75;1.30;;;;;;;;;;5052465;28;20499;-28
2023/10/29 11:45:56;;;;;;;5.25;1.83;;;;;;;;;;5046164;28;20148;-27
2023/10/29 11:48:23;;;;;;;5.13;1.40;;;15.60;1.00;;;;;;5054913;28;20035;-27
2023/10/29 11:51:05;;;;;;;6.68;1.30;;;15.80;99.90;;;;;;5048766;28;20095;-27
2023/10/29 11:53:37;;;;;;;7.15;1.50;;;15.30;1.00;;;;;;5054121;28;20041;-30
2023/10/29 11:56:05;;;;;;;5.78;1.65;;;16.00;1.00;;;;;;5048432;28;20048;-30
2023/10/29 11:58:34;;;;;;;7.18;1.48;;;15.90;1.00;;;;;;5045210;28;20037;-27
2023/10/29 12:00:59;;;;;;;9.18;2.20;;;15.80;1.00;;;;;;5053225;28;20114;-30
2023/10/29 12:03:38;;;;;;;7.57;1.60;;;15.70;1.00;;;;;;5050544;28;20037;-28
2023/10/29 12:06:04;;;;;;;5.85;1.40;;;;;;;;;;5050493;28;20036;-28
2023/10/29 12:08:31;;;;;;;5.90;1.60;;;15.80;1.00;;;;;;5040981;28;20492;-28
2023/10/29 12:10:58;;;;;;;7.10;1.92;;;15.20;1.00;;;;;;5049964;28;20489;-28
2023/10/29 12:13:28;;;;;;;6.20;1.48;;;16.50;1.00;;;;;;5056163;28;20036;-28
2023/10/29 12:15:58;;;;;;;8.45;2.03;;;15.40;1.00;;;;;;5045267;28;20508;-28
2023/10/29 12:18:25;;;;;;;4.80;1.40;;;15.60;1.00;;;;;;5049500;28;20033;-28
2023/10/29 12:21:01;;;;;;;6.60;1.90;;;15.80;1.00;;;;;;5047713;28;20344;-31
2023/10/29 12:23:27;;;;;;;7.50;2.00;;;15.80;1.00;;;;;;5047011;28;20047;-27
2023/10/29 12:25:59;;;;;;;7.90;1.63;;;15.80;1.00;;;;;;5046715;28;20045;-28
2023/10/29 12:28:28;;;;;;;6.47;1.48;;;15.80;1.00;;;;;;5053297;28;20290;-28
2023/10/29 12:30:57;;;;;;;10.80;1.98;;;15.80;1.00;;;;;;5049115;28;20080;-28
2023/10/29 12:33:27;;;;;;;5.88;1.63;;;;;;;;;;5045451;28;20036;-28
2023/10/29 12:35:56;;;;;;;6.70;1.40;;;15.90;1.00;;;;;;5050932;28;20087;-30
2023/10/29 12:38:25;;;;;;;5.55;1.30;;;16.20;1.00;;;;;;5048557;28;20420;-28
2023/10/29 12:41:16;;;;;;;6.43;1.60;;;16.00;1.00;;;;;;5053181;28;20139;-27
2023/10/29 12:43:49;;;;;;;6.55;1.85;;;;;;;;;;5043302;28;20419;-30
2023/10/29 12:46:20;;;;;;;7.88;1.60;;;;;;;;;;5043038;28;20408;-28
2023/10/29 12:49:07;;;;;;;6.57;2.25;;;;;;;;;;5044774;28;20040;-28
2023/10/29 12:51:37;;;;;;;7.30;2.00;;;;;;;;;;5045034;28;20572;-32
2023/10/29 12:54:36;;;;;;;8.07;2.45;;;15.80;1.00;;;;;;5043194;28;20575;-27
2023/10/29 12:57:24;;;;;;;7.97;2.10;;;16.20;1.00;;;;;;5046408;28;20049;-29
2023/10/29 12:59:50;;;;;;;8.18;1.92;;;15.50;1.00;;;;;;5040439;28;20389;-27
2023/10/29 13:02:26;;;;;;;7.43;1.88;;;15.90;99.90;;;;;;5050693;28;20051;-27
2023/10/29 13:04:52;;;;;;;8.88;2.00;;;15.50;1.00;;;;;;5042536;28;20037;-27
2023/10/29 13:07:19;;;;;;;8.88;1.90;;;16.30;1.00;;;;;;5048502;28;20041;-28
2023/10/29 13:09:48;;;;;;;9.43;2.72;;;15.80;1.00;;;;;;5043155;28;20033;-28
2023/10/29 13:12:16;;;;;;;6.88;1.85;;;15.80;1.00;;;;;;5048701;28;20028;-28
2023/10/29 13:14:43;;;;;;;7.85;1.70;;;15.90;1.00;;;;;;5050717;28;20103;-28
2023/10/29 13:17:08;;;;;;;11.35;2.28;;;15.90;1.00;;;;;;5043060;28;20044;-31
2023/10/29 13:19:38;;;;;;;8.45;2.00;;;16.10;1.00;;;;;;5049564;28;20037;-28
2023/10/29 13:22:05;;;;;;;8.98;2.05;;;15.80;1.00;;;;;;5047164;28;20099;-28